Wetterdaten: Woche 02.02.04 - 08.02.04 (KW6)
Datum Zeit Temperatur Luftfeuchte Luftdruck Regenmenge Wind Richtung Taupunkt Windchill
02.02.2004 00:00 3.0 C 77 % 1028.5 hPa 0.0 l/m 4.3 km/h (1 Bft) O-SO -0.6 C 2.1 C
02.02.2004 01:00 3.4 C 77 % 1028.5 hPa 0.0 l/m 8.1 km/h (2 Bft) SO -0.3 C 1.4 C
02.02.2004 02:00 3.2 C 77 % 1028.5 hPa 0.0 l/m 7.2 km/h (2 Bft) O-SO -0.5 C 1.4 C
02.02.2004 03:00 3.7 C 74 % 1028.1 hPa 0.0 l/m 8.5 km/h (2 Bft) SO -0.5 C 1.6 C
02.02.2004 04:00 3.2 C 75 % 1028.5 hPa 0.0 l/m 2.0 km/h (1 Bft) SO -0.7 C 2.8 C
02.02.2004 05:00 3.7 C 74 % 1028.1 hPa 0.0 l/m 11.1 km/h (2 Bft) SO -0.4 C 1.1 C
02.02.2004 06:00 3.6 C 72 % 1028.5 hPa 0.0 l/m 13.5 km/h (3 Bft) SO -0.9 C 0.5 C
02.02.2004 07:00 3.3 C 73 % 1028.5 hPa 0.0 l/m 10.3 km/h (2 Bft) SO -1.1 C 0.8 C
02.02.2004 08:00 3.6 C 72 % 1029.2 hPa 0.0 l/m 7.3 km/h (2 Bft) SO -1.0 C 1.9 C
02.02.2004 09:00 5.3 C 62 % 1029.5 hPa 0.0 l/m 7.4 km/h (2 Bft) SO -1.5 C 4.1 C
02.02.2004 10:00 6.6 C 55 % 1029.5 hPa 0.0 l/m 10.0 km/h (2 Bft) SO -1.7 C 4.9 C
02.02.2004 11:00 7.6 C 53 % 1029.5 hPa 0.0 l/m 19.7 km/h (3 Bft) SO -1.4 C 4.4 C
02.02.2004 12:00 9.5 C 47 % 1029.5 hPa 0.0 l/m 9.9 km/h (2 Bft) SO -1.3 C 8.5 C
02.02.2004 13:00 11.9 C 41 % 1029.2 hPa 0.0 l/m 11.6 km/h (2 Bft) SO -0.9 C 11.9 C
02.02.2004 14:00 11.6 C 43 % 1028.5 hPa 0.0 l/m 11.2 km/h (2 Bft) SO -0.6 C 11.6 C
02.02.2004 15:00 12.3 C 45 % 1029.1 hPa 0.0 l/m 5.0 km/h (1 Bft) SO 0.7 C 12.3 C
02.02.2004 16:00 12.0 C 45 % 1029.5 hPa 0.0 l/m 8.9 km/h (2 Bft) SO 0.4 C 12.0 C
02.02.2004 17:00 9.9 C 50 % 1029.5 hPa 0.0 l/m 4.8 km/h (1 Bft) SO -0.1 C 9.2 C
02.02.2004 18:00 9.1 C 51 % 1030.4 hPa 0.0 l/m 11.3 km/h (2 Bft) SO -0.6 C 7.4 C
02.02.2004 19:00 8.1 C 55 % 1030.9 hPa 0.0 l/m 5.9 km/h (2 Bft) SO -0.3 C 7.2 C
02.02.2004 20:00 7.2 C 59 % 1031.6 hPa 0.0 l/m 7.5 km/h (2 Bft) O-SO -0.4 C 5.9 C
02.02.2004 21:00 6.7 C 60 % 1032.2 hPa 0.0 l/m 8.9 km/h (2 Bft) O-SO -0.6 C 5.0 C
02.02.2004 22:00 6.0 C 62 % 1032.6 hPa 0.0 l/m 6.0 km/h (2 Bft) O-SO -0.7 C 4.8 C
02.02.2004 23:00 5.4 C 66 % 1032.6 hPa 0.0 l/m 4.0 km/h (1 Bft) SO -0.4 C 4.6 C
03.02.2004 00:00 4.8 C 69 % 1032.6 hPa 0.0 l/m 7.9 km/h (2 Bft) SO -0.5 C 2.9 C
03.02.2004 01:00 4.1 C 69 % 1032.6 hPa 0.0 l/m 8.1 km/h (2 Bft) O-SO -1.0 C 2.3 C
03.02.2004 02:00 3.2 C 73 % 1032.8 hPa 0.0 l/m 5.6 km/h (1 Bft) O-SO -1.1 C 1.8 C
03.02.2004 03:00 2.4 C 77 % 1032.8 hPa 0.0 l/m 7.9 km/h (2 Bft) O-SO -1.3 C 0.2 C
03.02.2004 04:00 1.9 C 79 % 1032.8 hPa 0.0 l/m 12.2 km/h (2 Bft) O-SO -1.3 C -1.4 C
03.02.2004 05:00 1.5 C 81 % 1033.7 hPa 0.0 l/m 10.7 km/h (2 Bft) O-SO -1.4 C -1.7 C
03.02.2004 06:00 0.8 C 81 % 1034.3 hPa 0.0 l/m 3.3 km/h (1 Bft) O-SO -2.1 C -0.2 C
03.02.2004 07:00 -0.5 C 86 % 1034.7 hPa 0.0 l/m 0.4 km/h (0 Bft) N -2.5 C -0.6 C
03.02.2004 08:00 -0.4 C 89 % 1035.4 hPa 0.0 l/m 0.0 km/h (0 Bft) N -2.1 C -0.4 C
03.02.2004 09:00 0.9 C 87 % 1035.7 hPa 0.0 l/m 0.0 km/h (0 Bft) N -1.1 C 0.9 C
03.02.2004 10:00 3.1 C 74 % 1035.7 hPa 0.0 l/m 2.1 km/h (1 Bft) O-SO -1.2 C 2.7 C
03.02.2004 11:00 5.5 C 61 % 1035.7 hPa 0.0 l/m 2.8 km/h (1 Bft) O-SO -1.5 C 5.1 C
03.02.2004 12:00 8.1 C 53 % 1035.0 hPa 0.0 l/m 7.3 km/h (2 Bft) O-SO -0.9 C 7.0 C
03.02.2004 13:00 10.5 C 46 % 1034.7 hPa 0.0 l/m 6.9 km/h (2 Bft) O-SO -0.6 C 10.3 C
03.02.2004 14:00 12.0 C 41 % 1033.9 hPa 0.0 l/m 1.8 km/h (1 Bft) O-SO -1.0 C 12.0 C
03.02.2004 15:00 12.7 C 39 % 1033.7 hPa 0.0 l/m 1.3 km/h (1 Bft) O-SO -1.0 C 12.7 C
03.02.2004 16:00 11.2 C 46 % 1033.6 hPa 0.0 l/m 0.0 km/h (0 Bft) N -0.2 C 11.2 C
03.02.2004 17:00 8.5 C 54 % 1033.7 hPa 0.0 l/m 0.4 km/h (0 Bft) O-SO -0.5 C 8.5 C
03.02.2004 18:00 6.0 C 65 % 1033.9 hPa 0.0 l/m 1.4 km/h (1 Bft) O-SO -0.0 C 5.9 C
03.02.2004 19:00 4.2 C 77 % 1034.7 hPa 0.0 l/m 1.5 km/h (1 Bft) O-SO 0.5 C 4.1 C
03.02.2004 20:00 3.2 C 80 % 1034.7 hPa 0.0 l/m 2.2 km/h (1 Bft) O-SO 0.2 C 2.9 C
03.02.2004 21:00 2.2 C 85 % 1034.9 hPa 0.0 l/m 1.4 km/h (1 Bft) O-SO -0.0 C 2.0 C
03.02.2004 22:00 1.9 C 88 % 1035.7 hPa 0.0 l/m 0.0 km/h (0 Bft) N 0.0 C 1.9 C
03.02.2004 23:00 1.1 C 89 % 1035.5 hPa 0.0 l/m 0.0 km/h (0 Bft) N -0.6 C 1.1 C
04.02.2004 00:00 0.1 C 90 % 1035.7 hPa 0.0 l/m 0.1 km/h (0 Bft) O-SO -1.3 C 0.1 C
04.02.2004 01:00 -0.1 C 92 % 1035.7 hPa 0.0 l/m 2.9 km/h (1 Bft) O-SO -1.2 C -0.8 C
04.02.2004 02:00 -0.2 C 93 % 1035.4 hPa 0.0 l/m 2.4 km/h (1 Bft) O-SO -1.3 C -0.7 C
04.02.2004 03:00 -1.0 C 92 % 1035.7 hPa 0.0 l/m 1.2 km/h (1 Bft) O-SO -2.1 C -1.4 C
04.02.2004 04:00 -1.4 C 92 % 1035.7 hPa 0.0 l/m 0.3 km/h (0 Bft) N -2.5 C -1.4 C
04.02.2004 05:00 -1.6 C 93 % 1036.6 hPa 0.0 l/m 0.6 km/h (0 Bft) O-SO -2.6 C -1.9 C
04.02.2004 06:00 -2.4 C 93 % 1036.8 hPa 0.0 l/m 0.2 km/h (0 Bft) O-SO -3.4 C -2.4 C
04.02.2004 07:00 -2.5 C 92 % 1036.8 hPa 0.0 l/m 0.0 km/h (0 Bft) N -3.7 C -2.5 C
04.02.2004 08:00 -2.0 C 93 % 1037.8 hPa 0.0 l/m 0.8 km/h (0 Bft) O-SO -3.0 C -2.1 C
04.02.2004 09:00 -0.5 C 100 % 1037.6 hPa 0.0 l/m 0.9 km/h (0 Bft) O-SO -0.5 C -0.6 C
04.02.2004 10:00 1.6 C 96 % 1037.7 hPa 0.0 l/m 0.1 km/h (0 Bft) O-SO 1.0 C 1.6 C
04.02.2004 11:00 3.8 C 74 % 1037.6 hPa 0.0 l/m 0.3 km/h (0 Bft) O-SO -0.4 C 3.8 C
04.02.2004 12:00 6.8 C 57 % 1036.8 hPa 0.0 l/m 0.2 km/h (0 Bft) N -1.2 C 6.8 C
04.02.2004 13:00 9.8 C 48 % 1036.2 hPa 0.0 l/m 1.8 km/h (1 Bft) O-SO -0.8 C 9.7 C
04.02.2004 14:00 11.8 C 42 % 1034.9 hPa 0.0 l/m 1.6 km/h (1 Bft) O-SO -0.6 C 11.8 C
04.02.2004 15:00 11.3 C 42 % 1034.7 hPa 0.0 l/m 0.4 km/h (0 Bft) O-SO -1.2 C 11.3 C
04.02.2004 16:00 9.4 C 50 % 1033.9 hPa 0.0 l/m 0.0 km/h (0 Bft) N -0.4 C 9.4 C
04.02.2004 17:00 6.8 C 61 % 1033.7 hPa 0.0 l/m 0.0 km/h (0 Bft) N -0.1 C 6.8 C
04.02.2004 18:00 4.8 C 70 % 1034.1 hPa 0.0 l/m 1.0 km/h (0 Bft) O-SO -0.2 C 4.8 C
04.02.2004 19:00 3.3 C 77 % 1033.8 hPa 0.0 l/m 0.4 km/h (0 Bft) O-SO -0.4 C 3.3 C
04.02.2004 20:00 1.9 C 84 % 1033.7 hPa 0.0 l/m 0.5 km/h (0 Bft) O-SO -0.4 C 1.9 C
04.02.2004 21:00 1.0 C 88 % 1034.1 hPa 0.0 l/m 0.0 km/h (0 Bft) N -0.7 C 1.0 C
04.02.2004 22:00 0.3 C 90 % 1034.7 hPa 0.0 l/m 0.0 km/h (0 Bft) N -1.2 C 0.3 C
04.02.2004 23:00 -0.6 C 91 % 1034.7 hPa 0.0 l/m 0.0 km/h (0 Bft) N -2.0 C -0.6 C
05.02.2004 00:00 -1.4 C 91 % 1034.7 hPa 0.0 l/m 0.3 km/h (0 Bft) O-SO -2.7 C -1.4 C
05.02.2004 01:00 -1.7 C 92 % 1034.4 hPa 0.0 l/m 2.3 km/h (1 Bft) O-SO -2.9 C -2.5 C
05.02.2004 02:00 -2.0 C 92 % 1033.7 hPa 0.0 l/m 0.0 km/h (0 Bft) N -3.2 C -2.0 C
05.02.2004 03:00 -2.3 C 91 % 1033.7 hPa 0.0 l/m 0.3 km/h (0 Bft) O -3.6 C -2.4 C
05.02.2004 04:00 -3.0 C 90 % 1033.8 hPa 0.0 l/m 0.0 km/h (0 Bft) N -4.4 C -3.0 C
05.02.2004 05:00 -2.9 C 90 % 1034.1 hPa 0.0 l/m 2.0 km/h (1 Bft) O -4.3 C -3.5 C
05.02.2004 06:00 -3.0 C 90 % 1034.2 hPa 0.0 l/m 2.0 km/h (1 Bft) O -4.4 C -3.8 C
05.02.2004 07:00 -2.8 C 91 % 1034.0 hPa 0.0 l/m 1.7 km/h (1 Bft) O-SO -4.0 C -3.5 C
05.02.2004 08:00 -2.5 C 93 % 1034.7 hPa 0.0 l/m 0.6 km/h (0 Bft) O-NO -3.4 C -2.6 C
05.02.2004 09:00 -1.0 C 98 % 1034.7 hPa 0.0 l/m 0.7 km/h (0 Bft) O -1.2 C -1.0 C
05.02.2004 10:00 2.6 C 91 % 1034.7 hPa 0.0 l/m 8.8 km/h (2 Bft) O-SO 1.2 C 0.2 C
05.02.2004 11:00 6.0 C 60 % 1034.4 hPa 0.0 l/m 7.3 km/h (2 Bft) SO -1.3 C 4.6 C
05.02.2004 12:00 8.7 C 47 % 1033.7 hPa 0.0 l/m 11.5 km/h (2 Bft) SW -1.9 C 7.2 C
05.02.2004 13:00 11.9 C 39 % 1032.9 hPa 0.0 l/m 9.0 km/h (2 Bft) S -1.8 C 11.9 C
05.02.2004 14:00 13.7 C 37 % 1032.6 hPa 0.0 l/m 8.0 km/h (2 Bft) SO -0.8 C 13.7 C
05.02.2004 15:00 13.9 C 36 % 1032.6 hPa 0.0 l/m 11.1 km/h (2 Bft) SO -1.1 C 13.9 C
05.02.2004 16:00 12.4 C 38 % 1032.6 hPa 0.0 l/m 6.9 km/h (2 Bft) SO -1.6 C 12.4 C
05.02.2004 17:00 10.3 C 44 % 1032.6 hPa 0.0 l/m 5.5 km/h (1 Bft) SO -1.6 C 9.9 C
05.02.2004 18:00 8.9 C 45 % 1032.6 hPa 0.0 l/m 8.6 km/h (2 Bft) SO -2.4 C 7.6 C
05.02.2004 19:00 7.6 C 48 % 1032.8 hPa 0.0 l/m 9.2 km/h (2 Bft) O -2.7 C 5.9 C
05.02.2004 20:00 7.0 C 50 % 1032.7 hPa 0.0 l/m 7.1 km/h (2 Bft) O -2.6 C 5.7 C
05.02.2004 21:00 6.5 C 51 % 1033.1 hPa 0.0 l/m 2.0 km/h (1 Bft) O -2.9 C 6.2 C
05.02.2004 22:00 5.6 C 55 % 1033.2 hPa 0.0 l/m 8.5 km/h (2 Bft) O -2.6 C 3.8 C
05.02.2004 23:00 3.7 C 65 % 1033.7 hPa 0.0 l/m 2.7 km/h (1 Bft) O -2.2 C 3.2 C
06.02.2004 00:00 3.2 C 69 % 1033.0 hPa 0.0 l/m 7.2 km/h (2 Bft) O-SO -1.9 C 1.3 C
06.02.2004 01:00 2.8 C 71 % 1032.6 hPa 0.0 l/m 6.5 km/h (2 Bft) O -1.8 C 1.2 C
06.02.2004 02:00 1.8 C 78 % 1031.9 hPa 0.0 l/m 2.7 km/h (1 Bft) O -1.7 C 1.1 C
06.02.2004 03:00 0.9 C 84 % 1031.5 hPa 0.0 l/m 1.1 km/h (0 Bft) O -1.5 C 0.6 C
06.02.2004 04:00 0.3 C 88 % 1030.7 hPa 0.0 l/m 0.9 km/h (0 Bft) O -1.4 C 0.1 C
06.02.2004 05:00 -0.1 C 89 % 1030.7 hPa 0.0 l/m 0.0 km/h (0 Bft) N -1.6 C -0.1 C
06.02.2004 06:00 0.3 C 91 % 1030.9 hPa 0.0 l/m 2.3 km/h (1 Bft) O-SO -1.0 C -0.1 C
06.02.2004 07:00 0.3 C 88 % 1030.6 hPa 0.0 l/m 0.0 km/h (0 Bft) O -1.5 C 0.3 C
06.02.2004 08:00 -0.2 C 90 % 1030.5 hPa 0.0 l/m 0.2 km/h (0 Bft) O-SO -1.6 C -0.2 C
06.02.2004 09:00 1.4 C 88 % 1029.7 hPa 0.0 l/m 0.0 km/h (0 Bft) N -0.4 C 1.4 C
06.02.2004 10:00 3.7 C 73 % 1028.8 hPa 0.0 l/m 0.7 km/h (0 Bft) O -0.8 C 3.6 C
06.02.2004 11:00 7.0 C 55 % 1028.3 hPa 0.0 l/m 5.2 km/h (1 Bft) O-SO -1.5 C 6.1 C
06.02.2004 12:00 9.8 C 42 % 1027.0 hPa 0.0 l/m 8.7 km/h (2 Bft) SO -2.3 C 9.2 C
06.02.2004 13:00 12.2 C 36 % 1026.0 hPa 0.0 l/m 12.8 km/h (3 Bft) O-SO -2.6 C 12.2 C
06.02.2004 14:00 12.9 C 34 % 1024.6 hPa 0.0 l/m 15.8 km/h (3 Bft) SO -2.6 C 12.9 C
06.02.2004 15:00 12.3 C 35 % 1024.3 hPa 0.0 l/m 11.6 km/h (2 Bft) SO -2.6 C 12.3 C
06.02.2004 16:00 11.6 C 39 % 1023.3 hPa 0.0 l/m 6.1 km/h (2 Bft) O-SO -2.0 C 11.6 C
06.02.2004 17:00 9.9 C 43 % 1023.3 hPa 0.0 l/m 4.2 km/h (1 Bft) O-SO -2.0 C 9.8 C
06.02.2004 18:00 7.3 C 54 % 1023.3 hPa 0.0 l/m 3.9 km/h (1 Bft) SO -1.5 C 6.7 C
06.02.2004 19:00 6.3 C 59 % 1023.3 hPa 0.0 l/m 3.0 km/h (1 Bft) SO -1.1 C 5.8 C
06.02.2004 20:00 5.1 C 67 % 1022.4 hPa 0.0 l/m 0.6 km/h (0 Bft) SO -0.5 C 5.0 C
06.02.2004 21:00 3.6 C 76 % 1022.2 hPa 0.0 l/m 0.0 km/h (0 Bft) N -0.2 C 3.6 C
06.02.2004 22:00 2.8 C 80 % 1021.3 hPa 0.0 l/m 0.9 km/h (0 Bft) O-SO -0.3 C 2.5 C
06.02.2004 23:00 2.1 C 84 % 1020.8 hPa 0.0 l/m 0.2 km/h (0 Bft) O-SO -0.4 C 2.1 C
07.02.2004 00:00 1.9 C 86 % 1020.1 hPa 0.0 l/m 0.7 km/h (0 Bft) O-SO -0.2 C 1.8 C
07.02.2004 01:00 1.9 C 84 % 1020.1 hPa 0.0 l/m 0.1 km/h (0 Bft) O-SO -0.5 C 1.9 C
07.02.2004 02:00 5.4 C 77 % 1019.5 hPa 0.0 l/m 14.6 km/h (3 Bft) W-NW 1.5 C 3.0 C
07.02.2004 03:00 11.0 C 52 % 1019.1 hPa 0.0 l/m 19.4 km/h (3 Bft) W-NW 1.5 C 10.8 C
07.02.2004 04:00 12.4 C 50 % 1019.1 hPa 0.0 l/m 32.9 km/h (5 Bft) W-NW 2.2 C 12.2 C
07.02.2004 05:00 13.2 C 49 % 1019.1 hPa 0.0 l/m 37.9 km/h (5 Bft) W-NW 2.7 C 13.2 C
07.02.2004 06:00 11.5 C 60 % 1019.3 hPa 0.3 l/m 41.9 km/h (6 Bft) W-NW 3.9 C 11.5 C
07.02.2004 07:00 9.7 C 74 % 1020.1 hPa 0.3 l/m 29.1 km/h (5 Bft) W-NW 5.3 C 6.4 C
07.02.2004 08:00 9.2 C 79 % 1020.6 hPa 1.0 l/m 36.2 km/h (5 Bft) W-NW 5.8 C 5.1 C
07.02.2004 09:00 9.5 C 59 % 1021.2 hPa 0.0 l/m 42.8 km/h (6 Bft) W-NW 1.9 C 5.2 C
07.02.2004 10:00 9.3 C 52 % 1021.7 hPa 0.0 l/m 36.5 km/h (5 Bft) W-NW 0.0 C 5.2 C
07.02.2004 11:00 9.6 C 46 % 1022.2 hPa 0.0 l/m 37.8 km/h (5 Bft) W-NW -1.5 C 5.6 C
07.02.2004 12:00 9.5 C 40 % 1022.2 hPa 0.0 l/m 44.7 km/h (6 Bft) NW -3.4 C 5.1 C
07.02.2004 13:00 9.9 C 39 % 1022.0 hPa 0.0 l/m 45.2 km/h (6 Bft) W-NW -3.4 C 6.1 C
07.02.2004 14:00 10.4 C 37 % 1022.1 hPa 0.0 l/m 46.1 km/h (6 Bft) NW -3.5 C 10.4 C
07.02.2004 15:00 10.2 C 36 % 1022.2 hPa 0.0 l/m 40.0 km/h (6 Bft) W-NW -4.1 C 8.5 C
07.02.2004 16:00 9.1 C 41 % 1022.5 hPa 0.0 l/m 42.1 km/h (6 Bft) W-NW -3.8 C 4.7 C
07.02.2004 17:00 5.2 C 78 % 1023.3 hPa 0.0 l/m 21.8 km/h (4 Bft) W-NW 1.7 C 1.5 C
07.02.2004 18:00 5.1 C 80 % 1023.8 hPa 0.7 l/m 19.2 km/h (3 Bft) W-NW 1.9 C 1.4 C
07.02.2004 19:00 5.0 C 81 % 1024.3 hPa 0.0 l/m 20.5 km/h (4 Bft) W-NW 2.0 C 1.3 C
07.02.2004 20:00 4.5 C 82 % 1024.3 hPa 0.0 l/m 11.8 km/h (2 Bft) W-NW 1.7 C 2.0 C
07.02.2004 21:00 4.3 C 81 % 1024.3 hPa 0.0 l/m 12.0 km/h (2 Bft) W-NW 1.3 C 1.6 C
07.02.2004 22:00 4.9 C 75 % 1024.3 hPa 0.0 l/m 16.5 km/h (3 Bft) W-NW 0.9 C 1.5 C
07.02.2004 23:00 4.7 C 72 % 1023.4 hPa 0.0 l/m 22.1 km/h (4 Bft) W-NW 0.0 C 0.5 C
08.02.2004 00:00 4.5 C 77 % 1023.3 hPa 0.3 l/m 19.6 km/h (3 Bft) W 0.8 C 0.6 C
08.02.2004 01:00 4.3 C 79 % 1023.3 hPa 0.3 l/m 29.7 km/h (5 Bft) W-NW 1.0 C -0.8 C
08.02.2004 02:00 3.8 C 80 % 1023.3 hPa 0.0 l/m 24.3 km/h (4 Bft) W-NW 0.7 C -0.8 C
08.02.2004 03:00 3.3 C 88 % 1022.6 hPa 0.0 l/m 12.8 km/h (3 Bft) W 1.6 C 0.3 C
08.02.2004 04:00 3.8 C 82 % 1021.4 hPa 0.7 l/m 18.5 km/h (3 Bft) W-NW 0.9 C -0.1 C
08.02.2004 05:00 3.5 C 82 % 1020.4 hPa 0.0 l/m 13.7 km/h (3 Bft) S 0.7 C 0.2 C
08.02.2004 06:00 4.1 C 80 % 1019.3 hPa 0.0 l/m 18.3 km/h (3 Bft) SW 0.9 C 0.2 C
08.02.2004 07:00 5.4 C 65 % 1019.1 hPa 0.0 l/m 34.2 km/h (5 Bft) W-NW -0.7 C 0.3 C
08.02.2004 08:00 5.8 C 54 % 1019.1 hPa 0.0 l/m 37.4 km/h (5 Bft) W-NW -2.9 C 0.6 C
08.02.2004 09:00 5.6 C 54 % 1018.6 hPa 0.0 l/m 44.7 km/h (6 Bft) W-NW -3.0 C -0.1 C
08.02.2004 10:00 5.5 C 54 % 1018.1 hPa 0.0 l/m 28.8 km/h (5 Bft) W -3.0 C 0.9 C
08.02.2004 11:00 2.5 C 81 % 1019.7 hPa 1.7 l/m 44.9 km/h (6 Bft) NW -0.6 C -4.2 C
08.02.2004 12:00 3.1 C 84 % 1020.1 hPa 1.0 l/m 34.6 km/h (5 Bft) W-NW 0.6 C -2.7 C
08.02.2004 13:00 4.7 C 68 % 1020.0 hPa 0.7 l/m 43.4 km/h (6 Bft) W-NW -0.7 C -1.3 C
08.02.2004 14:00 3.9 C 79 % 1020.1 hPa 0.7 l/m 35.1 km/h (5 Bft) W-NW 0.5 C -1.8 C
08.02.2004 15:00 3.6 C 80 % 1020.1 hPa 0.7 l/m 33.0 km/h (5 Bft) W-NW 0.5 C -2.0 C
08.02.2004 16:00 3.8 C 82 % 1020.1 hPa 0.0 l/m 34.1 km/h (5 Bft) W-NW 1.0 C -1.8 C
08.02.2004 17:00 4.7 C 67 % 1020.2 hPa 0.0 l/m 39.2 km/h (6 Bft) W-NW -0.9 C -1.0 C
08.02.2004 18:00 3.2 C 80 % 1021.8 hPa 0.7 l/m 43.9 km/h (6 Bft) W-NW 0.0 C -3.3 C
08.02.2004 19:00 2.9 C 81 % 1022.2 hPa 0.0 l/m 42.3 km/h (6 Bft) NW -0.0 C -3.7 C
08.02.2004 20:00 3.2 C 76 % 1023.2 hPa 0.0 l/m 37.6 km/h (5 Bft) W-NW -0.5 C -2.8 C
08.02.2004 21:00 3.5 C 75 % 1023.7 hPa 0.3 l/m 35.5 km/h (5 Bft) W-NW -0.6 C -2.2 C
08.02.2004 22:00 2.7 C 82 % 1024.3 hPa 1.0 l/m 32.7 km/h (5 Bft) NW -0.1 C -3.1 C
08.02.2004 23:00 1.2 C 91 % 1024.9 hPa 1.4 l/m 23.0 km/h (4 Bft) NW -0.2 C -3.7 C
Min-Datum _ 05.02.04 06.02.04 08.02.04 - 02.02.04 - 07.02.04 08.02.04
_ Min-Zeit 07:26 13:50 10:00 - 00:23 - 16:28 11:23
Minimum _ -3.4 C 32 % 1018.1 hPa - 0.0 km/h (0 Bft) - -5.7 C -7.2 C
Max-Datum _ 05.02.04 04.02.04 04.02.04 08.02.04 08.02.04 - 07.02.04 05.02.04
_ Max-Zeit 15:11 09:10 07:58 11:14 11:14 - 08:13 15:11
Maximum _ 14.5 C 100 % 1037.8 hPa 1.7 l/m 74.1 km/h
NW (8 Bft)
- 6.3 C 14.5 C
Durchschnitt _ 4.9 C 69 % 1029.0 hPa #11.9 l/m 11.6 km/h (2 Bft) O-SO -0.9 C 3.3 C

Durchschnitt Minimum Temp.4.0 C
Durchschnitt Maximum Temp.5.8 C
© Kaiko 2004